Terminal Aerodrome Forecast
Issued by NWS Portland, OR

Home | Current Version | Previous Version | Text Only | Print | Product List | Glossary On
Versions: 1 2 3 4 5 6 7 8 9 10 11 12 13 14 15 16 17 18
000
FTUS46 KPQR 301120
TAFSLE
TAF
KSLE 301120Z 3012/3112 VRB03KT 2SM -RA BR OVC003
      TEMPO 3012/3014 1/2SM FG OVC002
     FM301400 21007KT 3SM -RA BR BKN003 OVC050
     FM301800 14006KT 3SM -RA BR SCT007 OVC035
     FM310300 VRB04KT 4SM -RA BR BKN015 OVC035=

USA.gov is the U.S. government's official web portal to all federal, state and local government web resources and services.